createdAt,value
2018-04-26T00:01:16.783Z,14.70
2018-04-26T00:03:44.324Z,14.68
2018-04-26T00:06:11.888Z,14.64
2018-04-26T00:08:39.756Z,14.62
2018-04-26T00:11:07.302Z,14.59
2018-04-26T00:13:34.897Z,14.60
2018-04-26T00:16:02.592Z,14.58
2018-04-26T00:18:30.140Z,14.56
2018-04-26T00:20:57.686Z,14.54
2018-04-26T00:23:25.408Z,14.53
2018-04-26T00:25:52.956Z,14.49
2018-04-26T00:28:20.509Z,14.47
2018-04-26T00:30:48.092Z,14.44
2018-04-26T00:33:15.631Z,14.42
2018-04-26T00:35:43.173Z,14.40
2018-04-26T00:38:10.737Z,14.37
2018-04-26T00:40:38.288Z,14.41
2018-04-26T00:43:05.827Z,14.39
2018-04-26T00:45:33.412Z,14.37
2018-04-26T00:48:01.043Z,14.35
2018-04-26T00:50:28.528Z,14.34
2018-04-26T00:52:56.107Z,14.30
2018-04-26T00:55:23.637Z,14.29
2018-04-26T00:57:51.178Z,14.29
2018-04-26T01:00:18.897Z,14.26
2018-04-26T01:02:46.437Z,14.24
2018-04-26T01:05:14.019Z,14.23
2018-04-26T01:07:41.738Z,14.21
2018-04-26T01:10:09.297Z,14.22
2018-04-26T01:12:36.836Z,14.18
2018-04-26T01:15:04.530Z,14.15
2018-04-26T01:17:32.091Z,14.11
2018-04-26T01:19:59.647Z,14.08
2018-04-26T01:22:27.224Z,14.05
2018-04-26T01:24:54.782Z,14.02
2018-04-26T01:27:22.337Z,13.97
2018-04-26T01:29:49.931Z,13.95
2018-04-26T01:32:17.492Z,13.93
2018-04-26T01:34:45.041Z,13.91
2018-04-26T01:37:24.792Z,13.89
2018-04-26T01:39:52.343Z,13.89
2018-04-26T01:42:19.884Z,13.86
2018-04-26T01:44:47.483Z,13.85
2018-04-26T01:47:15.032Z,13.81
2018-04-26T01:49:42.580Z,13.80
2018-04-26T01:52:10.128Z,13.77
2018-04-26T01:54:37.666Z,13.76
2018-04-26T01:57:05.483Z,13.76
2018-04-26T01:59:33.031Z,13.65
2018-04-26T02:02:00.581Z,13.65
2018-04-26T02:04:28.246Z,13.62
2018-04-26T02:06:55.784Z,13.61
2018-04-26T02:09:23.329Z,13.62
2018-04-26T02:11:50.927Z,13.63
2018-04-26T02:14:18.455Z,13.65
2018-04-26T02:16:45.979Z,13.66
2018-04-26T02:19:13.700Z,13.65
2018-04-26T02:21:41.246Z,13.60
2018-04-26T02:24:08.781Z,13.58
2018-04-26T02:26:36.348Z,13.54
2018-04-26T02:29:03.897Z,13.52
2018-04-26T02:31:31.440Z,13.53
2018-04-26T02:33:59.025Z,13.51
2018-04-26T02:36:26.563Z,13.52
2018-04-26T02:38:54.097Z,13.51
2018-04-26T02:41:21.813Z,13.48
2018-04-26T02:43:49.370Z,13.45
2018-04-26T02:46:16.916Z,13.42
2018-04-26T02:48:44.494Z,13.43
2018-04-26T02:51:12.039Z,13.43
2018-04-26T02:53:39.580Z,13.40
2018-04-26T02:56:07.193Z,13.35
2018-04-26T02:58:34.736Z,13.33
2018-04-26T03:01:02.279Z,13.30
2018-04-26T03:03:30.012Z,13.27
2018-04-26T03:05:57.558Z,13.26
2018-04-26T03:08:25.171Z,13.23
2018-04-26T03:10:52.877Z,13.21
2018-04-26T03:13:20.420Z,13.19
2018-04-26T03:15:47.968Z,13.18
2018-04-26T03:18:15.663Z,13.17
2018-04-26T03:20:43.203Z,13.16
2018-04-26T03:23:10.745Z,13.15
2018-04-26T03:25:38.337Z,13.16
2018-04-26T03:28:05.891Z,13.19
2018-04-26T03:30:33.432Z,13.18
2018-04-26T03:33:01.304Z,13.18
2018-04-26T03:35:28.855Z,13.21
2018-04-26T03:37:56.404Z,13.28
2018-04-26T03:40:23.996Z,13.45
2018-04-26T03:42:51.549Z,13.71
2018-04-26T03:45:19.092Z,14.08
2018-04-26T03:47:46.658Z,14.56
2018-04-26T03:50:14.239Z,15.16
2018-04-26T03:52:41.789Z,15.85
2018-04-26T03:55:09.386Z,16.63
2018-04-26T03:57:36.937Z,17.45
2018-04-26T04:00:16.278Z,18.36
2018-04-26T04:02:55.478Z,19.37
2018-04-26T04:05:34.923Z,20.27
2018-04-26T04:08:02.460Z,20.75
2018-04-26T04:10:30.000Z,21.27
2018-04-26T04:12:57.724Z,22.00
2018-04-26T04:15:25.299Z,22.90
2018-04-26T04:17:52.867Z,23.45
2018-04-26T04:20:20.455Z,24.50
2018-04-26T04:22:47.991Z,24.87
2018-04-26T04:25:15.538Z,25.68
2018-04-26T04:27:43.395Z,26.05
2018-04-26T04:30:10.969Z,26.98
2018-04-26T04:32:38.526Z,27.93
2018-04-26T04:35:06.125Z,28.34
2018-04-26T04:37:33.664Z,29.03
2018-04-26T04:40:01.213Z,29.65
2018-04-26T04:42:28.884Z,29.78
2018-04-26T04:44:56.422Z,30.62
2018-04-26T04:47:23.969Z,31.26
2018-04-26T04:49:51.565Z,31.51
2018-04-26T04:52:19.117Z,32.01
2018-04-26T04:54:46.677Z,32.25
2018-04-26T04:57:14.363Z,32.44
2018-04-26T04:59:41.906Z,33.23
2018-04-26T05:02:09.520Z,32.12
2018-04-26T05:04:37.223Z,32.03
2018-04-26T05:07:04.781Z,32.46
2018-04-26T05:09:32.323Z,33.12
2018-04-26T05:11:59.904Z,33.13
2018-04-26T05:14:27.445Z,33.01
2018-04-26T05:16:54.997Z,33.81
2018-04-26T05:19:22.567Z,34.57
2018-04-26T05:21:50.136Z,35.01
2018-04-26T05:24:17.675Z,34.62
2018-04-26T05:26:45.256Z,35.05
2018-04-26T05:29:12.811Z,35.09
2018-04-26T05:31:40.349Z,34.91
2018-04-26T05:34:07.937Z,34.32
2018-04-26T05:36:35.501Z,33.50
2018-04-26T05:39:03.058Z,32.71
2018-04-26T05:41:30.638Z,31.72
2018-04-26T05:43:58.242Z,31.03
2018-04-26T05:46:25.791Z,30.30
2018-04-26T05:48:53.525Z,29.97
2018-04-26T05:51:21.072Z,29.59
2018-04-26T05:53:48.620Z,29.41
2018-04-26T05:56:16.209Z,28.16
2018-04-26T05:58:43.750Z,27.52
2018-04-26T06:01:11.310Z,26.96
2018-04-26T06:03:38.949Z,27.51
2018-04-26T06:06:06.488Z,27.81
2018-04-26T06:08:34.040Z,27.69
2018-04-26T06:11:01.752Z,27.56
2018-04-26T06:13:29.301Z,27.57
2018-04-26T06:15:56.863Z,27.13
2018-04-26T06:18:24.729Z,27.29
2018-04-26T06:20:52.278Z,27.55
2018-04-26T06:23:19.837Z,27.48
2018-04-26T06:25:47.557Z,27.22
2018-04-26T06:28:15.244Z,26.68
2018-04-26T06:30:42.789Z,26.86
2018-04-26T06:33:10.365Z,26.70
2018-04-26T06:35:37.940Z,26.82
2018-04-26T06:38:05.506Z,26.84
2018-04-26T06:40:33.256Z,26.07
2018-04-26T06:43:00.819Z,26.39
2018-04-26T06:45:28.364Z,26.57
2018-04-26T06:47:56.129Z,26.11
2018-04-26T06:50:23.714Z,26.57
2018-04-26T06:52:51.291Z,26.80
2018-04-26T06:55:18.872Z,26.52
2018-04-26T06:57:46.423Z,26.56
2018-04-26T07:00:13.965Z,26.86
2018-04-26T07:02:41.541Z,26.74
2018-04-26T07:05:09.085Z,26.71
2018-04-26T07:07:36.640Z,26.66
2018-04-26T07:10:04.250Z,26.99
2018-04-26T07:12:31.812Z,27.22
2018-04-26T07:14:59.352Z,27.18
2018-04-26T07:17:26.937Z,27.09
2018-04-26T07:19:54.491Z,27.04
2018-04-26T07:22:22.118Z,27.33
2018-04-26T07:24:49.666Z,27.69
2018-04-26T07:27:17.208Z,27.72
2018-04-26T07:29:44.758Z,27.30
2018-04-26T07:32:12.611Z,27.29
2018-04-26T07:34:40.204Z,27.58
2018-04-26T07:37:07.752Z,27.49
2018-04-26T07:39:35.328Z,27.64
2018-04-26T07:42:02.880Z,27.93
2018-04-26T07:44:30.429Z,28.30
2018-04-26T07:46:58.041Z,28.57
2018-04-26T07:49:25.737Z,28.54
2018-04-26T07:51:53.279Z,28.52
2018-04-26T07:54:20.991Z,28.38
2018-04-26T07:56:48.566Z,27.67
2018-04-26T07:59:16.124Z,27.78
2018-04-26T08:01:43.714Z,27.69
2018-04-26T08:04:11.278Z,27.88
2018-04-26T08:06:38.835Z,27.77
2018-04-26T08:09:06.615Z,27.69
2018-04-26T08:11:34.177Z,27.87
2018-04-26T08:14:01.744Z,27.64
2018-04-26T08:16:29.612Z,27.11
2018-04-26T08:18:57.179Z,26.93
2018-04-26T08:21:24.732Z,26.85
2018-04-26T08:23:52.328Z,26.68
2018-04-26T08:26:20.773Z,26.80
2018-04-26T08:28:48.321Z,26.65
2018-04-26T08:31:15.928Z,26.85
2018-04-26T08:33:43.470Z,26.84
2018-04-26T08:36:11.096Z,26.86
2018-04-26T08:38:38.839Z,26.73
2018-04-26T08:41:06.447Z,26.96
2018-04-26T08:43:33.985Z,26.96
2018-04-26T08:46:01.713Z,27.07
2018-04-26T08:48:29.304Z,27.18
2018-04-26T08:50:56.848Z,27.52
2018-04-26T08:53:24.423Z,27.71
2018-04-26T08:55:51.977Z,27.79
2018-04-26T08:58:19.512Z,28.06
2018-04-26T09:00:47.104Z,28.10
2018-04-26T09:03:14.669Z,27.91
2018-04-26T09:05:42.219Z,27.76
2018-04-26T09:08:09.787Z,27.17
2018-04-26T09:10:37.331Z,27.18
2018-04-26T09:13:04.884Z,27.50
2018-04-26T09:15:32.562Z,27.67
2018-04-26T09:18:00.135Z,27.80
2018-04-26T09:20:27.684Z,27.82
2018-04-26T09:22:55.376Z,28.01
2018-04-26T09:25:22.930Z,27.95
2018-04-26T09:27:50.474Z,27.82
2018-04-26T09:30:18.053Z,27.37
2018-04-26T09:32:45.595Z,27.39
2018-04-26T09:35:13.156Z,27.51
2018-04-26T09:37:40.842Z,27.78
2018-04-26T09:40:08.386Z,27.94
2018-04-26T09:42:35.934Z,28.11
2018-04-26T09:45:03.675Z,28.33
2018-04-26T09:47:31.263Z,28.57
2018-04-26T09:49:58.793Z,28.82
2018-04-26T09:52:26.345Z,29.05
2018-04-26T09:54:53.885Z,29.13
2018-04-26T09:57:21.747Z,29.29
2018-04-26T09:59:49.295Z,29.25
2018-04-26T10:02:16.848Z,29.05
2018-04-26T10:04:50.174Z,28.74
2018-04-26T10:07:17.739Z,28.67
2018-04-26T10:09:45.280Z,28.72
2018-04-26T10:12:12.966Z,28.99
2018-04-26T10:14:40.496Z,28.92
2018-04-26T10:17:08.048Z,28.99
2018-04-26T10:19:35.621Z,28.92
2018-04-26T10:22:03.160Z,28.69
2018-04-26T10:24:30.707Z,28.67
2018-04-26T10:26:58.283Z,28.88
2018-04-26T10:29:25.823Z,29.10
2018-04-26T10:31:53.399Z,29.23
2018-04-26T10:34:20.969Z,29.05
2018-04-26T10:36:48.523Z,29.01
2018-04-26T10:39:16.127Z,28.86
2018-04-26T10:41:43.709Z,28.66
2018-04-26T10:44:11.280Z,28.52
2018-04-26T10:46:38.820Z,28.41
2018-04-26T10:49:06.517Z,28.33
2018-04-26T10:51:34.075Z,28.25
2018-04-26T10:54:01.666Z,28.47
2018-04-26T10:56:29.390Z,28.91
2018-04-26T10:58:56.950Z,29.20
2018-04-26T11:01:24.493Z,29.44
2018-04-26T11:03:52.079Z,29.41
2018-04-26T11:06:19.620Z,29.64
2018-04-26T11:08:47.159Z,29.89
2018-04-26T11:11:14.795Z,30.12
2018-04-26T11:13:42.324Z,30.11
2018-04-26T11:16:09.897Z,30.19
2018-04-26T11:18:37.629Z,30.25
2018-04-26T11:21:05.163Z,30.29
2018-04-26T11:23:32.715Z,30.40
2018-04-26T11:26:00.596Z,30.06
2018-04-26T11:28:28.145Z,29.76
2018-04-26T11:30:55.759Z,29.91
2018-04-26T11:33:23.396Z,30.00
2018-04-26T11:35:50.947Z,30.09
2018-04-26T11:38:18.492Z,30.04
2018-04-26T11:40:46.210Z,29.97
2018-04-26T11:43:13.756Z,30.04
2018-04-26T11:45:41.312Z,30.06
2018-04-26T11:48:08.915Z,29.95
2018-04-26T11:50:36.482Z,29.78
2018-04-26T11:53:04.023Z,29.62
2018-04-26T11:55:31.601Z,29.47
2018-04-26T11:57:59.147Z,29.28
2018-04-26T12:00:26.742Z,28.85
2018-04-26T12:02:54.332Z,28.88
2018-04-26T12:05:21.911Z,28.87
2018-04-26T12:07:49.584Z,28.81
2018-04-26T12:10:17.201Z,28.81
2018-04-26T12:12:44.758Z,28.76
2018-04-26T12:15:12.308Z,28.71
2018-04-26T12:17:39.969Z,28.62
2018-04-26T12:20:07.462Z,28.55
2018-04-26T12:22:34.994Z,28.38
2018-04-26T12:25:02.714Z,28.26
2018-04-26T12:27:30.251Z,28.15
2018-04-26T12:29:57.800Z,28.12
2018-04-26T12:32:25.521Z,28.03
2018-04-26T12:34:53.070Z,27.99
2018-04-26T12:37:20.633Z,27.95
2018-04-26T12:39:48.192Z,27.94
2018-04-26T12:42:15.813Z,27.88
2018-04-26T12:44:43.341Z,27.86
2018-04-26T12:47:11.213Z,27.78
2018-04-26T12:49:38.741Z,27.83
2018-04-26T12:52:06.292Z,27.95
2018-04-26T12:54:33.863Z,28.02
2018-04-26T12:57:01.408Z,28.22
2018-04-26T12:59:28.963Z,28.57
2018-04-26T13:01:56.560Z,28.85
2018-04-26T13:04:24.120Z,28.67
2018-04-26T13:06:51.683Z,28.29
2018-04-26T13:09:19.281Z,27.93
2018-04-26T13:11:46.832Z,27.55
2018-04-26T13:14:14.380Z,27.24
2018-04-26T13:16:42.125Z,27.12
2018-04-26T13:19:09.675Z,26.95
2018-04-26T13:21:37.227Z,27.10
2018-04-26T13:24:04.819Z,27.16
2018-04-26T13:26:32.370Z,27.29
2018-04-26T13:28:59.940Z,27.43
2018-04-26T13:31:27.538Z,27.59
2018-04-26T13:33:55.095Z,27.80
2018-04-26T13:36:22.719Z,27.84
2018-04-26T13:38:50.338Z,27.95
2018-04-26T13:41:17.884Z,27.87
2018-04-26T13:43:45.436Z,27.63
2018-04-26T13:46:13.092Z,27.46
2018-04-26T13:48:40.585Z,27.47
2018-04-26T13:51:08.141Z,27.43
2018-04-26T13:53:35.731Z,27.49
2018-04-26T13:56:03.275Z,27.15
2018-04-26T13:58:30.833Z,27.24
2018-04-26T14:00:59.639Z,27.37
2018-04-26T14:03:27.188Z,27.39
2018-04-26T14:05:54.744Z,27.55
2018-04-26T14:08:22.319Z,27.62
2018-04-26T14:10:49.871Z,27.64
2018-04-26T14:13:17.487Z,27.76
2018-04-26T14:15:45.079Z,27.90
2018-04-26T14:18:12.627Z,28.04
2018-04-26T14:20:40.186Z,28.12
2018-04-26T14:23:07.942Z,28.38
2018-04-26T14:25:35.488Z,28.35
2018-04-26T14:28:03.033Z,28.57
2018-04-26T14:30:30.599Z,28.73
2018-04-26T14:32:58.164Z,28.89
2018-04-26T14:35:25.727Z,29.10
2018-04-26T14:37:53.532Z,29.28
2018-04-26T14:40:21.084Z,29.28
2018-04-26T14:42:48.625Z,29.34
2018-04-26T14:45:16.248Z,29.25
2018-04-26T14:47:43.795Z,29.26
2018-04-26T14:50:11.332Z,29.20
2018-04-26T14:52:38.892Z,29.16
2018-04-26T14:55:06.453Z,29.12
2018-04-26T14:57:34.169Z,29.07
2018-04-26T15:00:01.729Z,29.08
2018-04-26T15:02:29.292Z,29.08
2018-04-26T15:04:56.876Z,29.00
2018-04-26T15:07:24.449Z,29.00
2018-04-26T15:09:51.989Z,29.02
2018-04-26T15:12:19.789Z,29.02
2018-04-26T15:14:47.345Z,28.97
2018-04-26T15:17:14.898Z,28.88
2018-04-26T15:19:42.770Z,28.80
2018-04-26T15:22:10.332Z,28.78
2018-04-26T15:24:37.893Z,28.62
2018-04-26T15:27:05.467Z,28.69
2018-04-26T15:29:33.024Z,28.63
2018-04-26T15:32:00.585Z,28.57
2018-04-26T15:34:28.343Z,28.51
2018-04-26T15:36:55.909Z,28.48
2018-04-26T15:39:23.528Z,28.44
2018-04-26T15:41:51.221Z,28.31
2018-04-26T15:44:18.845Z,28.26
2018-04-26T15:46:46.361Z,28.17
2018-04-26T15:49:13.947Z,28.08
2018-04-26T15:51:41.484Z,28.04
2018-04-26T15:54:20.721Z,27.99
2018-04-26T15:57:01.254Z,27.93
2018-04-26T15:59:40.581Z,27.83
2018-04-26T16:02:26.323Z,27.78
2018-04-26T16:08:23.541Z,27.02
2018-04-26T16:11:08.608Z,26.48
2018-04-26T16:13:53.592Z,26.28
2018-04-26T16:16:38.356Z,26.13
2018-04-26T16:19:28.084Z,25.93
2018-04-26T16:22:13.136Z,25.87
2018-04-26T16:24:54.336Z,25.65
2018-04-26T16:27:48.508Z,25.46
2018-04-26T16:30:28.363Z,25.25
2018-04-26T16:33:08.561Z,25.21
2018-04-26T16:35:47.767Z,25.09
2018-04-26T16:38:27.106Z,24.94
2018-04-26T16:40:54.665Z,24.98
2018-04-26T16:43:22.210Z,24.94
2018-04-26T16:45:49.805Z,24.96
2018-04-26T16:48:17.390Z,24.82
2018-04-26T16:50:44.952Z,24.69
2018-04-26T16:53:12.491Z,24.64
2018-04-26T16:55:40.065Z,24.40
2018-04-26T16:58:07.651Z,24.31
2018-04-26T17:00:35.203Z,24.25
2018-04-26T17:03:02.752Z,24.20
2018-04-26T17:05:30.353Z,24.14
2018-04-26T17:07:57.902Z,24.01
2018-04-26T17:10:26.775Z,23.82
2018-04-26T17:12:54.661Z,23.65
2018-04-26T17:15:22.260Z,23.51
2018-04-26T17:17:49.778Z,23.30
2018-04-26T17:20:17.368Z,23.08
2018-04-26T17:22:44.926Z,22.77
2018-04-26T17:25:12.476Z,22.59
2018-04-26T17:27:40.351Z,22.36
2018-04-26T17:30:07.902Z,22.19
2018-04-26T17:32:35.454Z,22.03
2018-04-26T17:35:03.046Z,21.88
2018-04-26T17:37:30.593Z,21.75
2018-04-26T17:39:58.139Z,21.59
2018-04-26T17:42:25.728Z,21.49
2018-04-26T17:44:53.268Z,21.39
2018-04-26T17:47:20.819Z,21.36
2018-04-26T17:49:48.425Z,21.26
2018-04-26T17:52:15.968Z,21.14
2018-04-26T17:54:44.110Z,21.05
2018-04-26T17:57:11.752Z,20.96
2018-04-26T17:59:39.303Z,20.87
2018-04-26T18:02:06.881Z,20.83
2018-04-26T18:04:34.666Z,20.73
2018-04-26T18:07:02.230Z,20.68
2018-04-26T18:09:29.800Z,20.57
2018-04-26T18:11:57.487Z,20.58
2018-04-26T18:14:25.036Z,20.52
2018-04-26T18:16:53.773Z,20.51
2018-04-26T18:19:21.501Z,20.50
2018-04-26T18:21:49.057Z,20.49
2018-04-26T18:24:16.613Z,20.44
2018-04-26T18:26:44.350Z,20.37
2018-04-26T18:29:11.941Z,20.21
2018-04-26T18:31:39.484Z,20.13
2018-04-26T18:34:07.338Z,20.02
2018-04-26T18:36:34.872Z,19.96
2018-04-26T18:39:02.458Z,19.89
2018-04-26T18:41:30.371Z,19.84
2018-04-26T18:43:57.918Z,19.90
2018-04-26T18:46:25.500Z,19.97
2018-04-26T18:48:53.089Z,19.97
2018-04-26T18:51:20.693Z,19.92
2018-04-26T18:53:48.197Z,19.91
2018-04-26T18:56:15.891Z,19.91
2018-04-26T18:58:43.449Z,19.85
2018-04-26T19:01:11.008Z,19.78
2018-04-26T19:03:38.744Z,19.74
2018-04-26T19:06:06.308Z,19.63
2018-04-26T19:08:33.857Z,19.52
2018-04-26T19:11:01.448Z,19.48
2018-04-26T19:13:29.020Z,19.43
2018-04-26T19:15:56.569Z,19.35
2018-04-26T19:18:24.166Z,19.26
2018-04-26T19:20:51.801Z,19.20
2018-04-26T19:23:19.372Z,19.17
2018-04-26T19:25:47.183Z,19.10
2018-04-26T19:28:14.734Z,19.02
2018-04-26T19:30:42.276Z,18.95
2018-04-26T19:33:09.856Z,18.91
2018-04-26T19:35:37.401Z,18.82
2018-04-26T19:38:04.966Z,18.69
2018-04-26T19:40:32.704Z,18.60
2018-04-26T19:43:00.247Z,18.56
2018-04-26T19:45:27.935Z,18.57
2018-04-26T19:47:55.652Z,18.52
2018-04-26T19:50:23.197Z,18.47
2018-04-26T19:52:50.736Z,18.44
2018-04-26T19:55:18.327Z,18.36
2018-04-26T19:57:45.925Z,18.28
2018-04-26T20:00:13.437Z,18.19
2018-04-26T20:02:41.152Z,18.15
2018-04-26T20:05:08.692Z,18.10
2018-04-26T20:07:36.223Z,18.02
2018-04-26T20:10:03.879Z,17.99
2018-04-26T20:12:31.418Z,17.91
2018-04-26T20:14:58.965Z,17.84
2018-04-26T20:17:26.640Z,17.77
2018-04-26T20:19:54.176Z,17.74
2018-04-26T20:22:21.711Z,17.67
2018-04-26T20:24:49.440Z,17.63
2018-04-26T20:27:16.989Z,17.53
2018-04-26T20:29:44.527Z,17.46
2018-04-26T20:32:12.107Z,17.36
2018-04-26T20:34:39.648Z,17.30
2018-04-26T20:37:07.197Z,17.24
2018-04-26T20:39:34.936Z,17.17
2018-04-26T20:42:02.497Z,17.13
2018-04-26T20:44:41.736Z,17.12
2018-04-26T20:47:09.279Z,17.06
2018-04-26T20:49:36.852Z,17.00
2018-04-26T20:52:04.406Z,16.96
2018-04-26T20:54:31.949Z,16.93
2018-04-26T20:56:59.521Z,16.93
2018-04-26T20:59:27.092Z,16.94
2018-04-26T21:01:54.647Z,16.80
2018-04-26T21:04:22.515Z,16.82
2018-04-26T21:06:50.059Z,16.79
2018-04-26T21:09:17.597Z,16.79
2018-04-26T21:11:45.169Z,16.75
2018-04-26T21:14:12.734Z,16.66
2018-04-26T21:16:40.271Z,16.64
2018-04-26T21:19:07.882Z,16.65
2018-04-26T21:21:35.431Z,16.65
2018-04-26T21:24:02.985Z,16.70
2018-04-26T21:26:30.738Z,16.64
2018-04-26T21:28:58.278Z,16.64
2018-04-26T21:31:25.824Z,16.61
2018-04-26T21:33:53.397Z,16.61
2018-04-26T21:36:20.961Z,16.63
2018-04-26T21:38:48.503Z,16.67
2018-04-26T21:41:16.227Z,16.68
2018-04-26T21:43:43.774Z,16.68
2018-04-26T21:46:11.318Z,16.68
2018-04-26T21:48:39.161Z,16.72
2018-04-26T21:51:12.212Z,16.75
2018-04-26T21:53:45.426Z,16.74
2018-04-26T21:56:18.491Z,16.72
2018-04-26T21:58:51.952Z,16.73
2018-04-26T22:01:25.115Z,16.71
2018-04-26T22:07:00.132Z,16.71
2018-04-26T22:09:27.702Z,16.65
2018-04-26T22:11:55.252Z,16.60
2018-04-26T22:14:22.799Z,16.55
2018-04-26T22:16:50.375Z,16.50
2018-04-26T22:19:17.916Z,16.51
2018-04-26T22:21:45.449Z,16.43
2018-04-26T22:24:13.317Z,16.43
2018-04-26T22:26:40.902Z,16.39
2018-04-26T22:29:08.438Z,16.37
2018-04-26T22:31:36.147Z,16.35
2018-04-26T22:34:03.691Z,16.34
2018-04-26T22:36:31.243Z,16.32
2018-04-26T22:38:58.834Z,16.37
2018-04-26T22:41:26.381Z,16.32
2018-04-26T22:43:53.973Z,16.31
2018-04-26T22:46:21.556Z,16.20
2018-04-26T22:48:49.156Z,16.12
2018-04-26T22:51:16.686Z,16.03
2018-04-26T22:53:44.235Z,16.01
2018-04-26T22:56:11.773Z,15.98
2018-04-26T22:58:39.371Z,15.97
2018-04-26T23:01:06.913Z,15.93
2018-04-26T23:03:34.463Z,15.89
2018-04-26T23:06:02.020Z,15.84
2018-04-26T23:08:29.555Z,15.80
2018-04-26T23:10:57.099Z,15.76
2018-04-26T23:13:24.768Z,15.66
2018-04-26T23:15:52.301Z,15.62
2018-04-26T23:18:19.840Z,15.58
2018-04-26T23:20:47.650Z,15.56
2018-04-26T23:23:15.191Z,15.55
2018-04-26T23:25:42.733Z,15.52
2018-04-26T23:28:10.306Z,15.50
2018-04-26T23:30:37.838Z,15.53
2018-04-26T23:33:05.384Z,15.48
2018-04-26T23:35:32.953Z,15.45
2018-04-26T23:38:00.512Z,15.43
2018-04-26T23:40:28.051Z,15.43
2018-04-26T23:42:55.629Z,15.39
2018-04-26T23:45:23.171Z,15.34
2018-04-26T23:47:50.711Z,15.28
2018-04-26T23:50:18.397Z,15.27
2018-04-26T23:52:45.930Z,15.24
2018-04-26T23:55:13.497Z,15.20
2018-04-26T23:57:41.186Z,15.21
